createdAt,value
2024-05-09T00:00:58.843Z,99493.08
2024-05-09T00:02:15.689Z,99492.92
2024-05-09T00:03:17.327Z,99493.21
2024-05-09T00:04:19.171Z,99494.86
2024-05-09T00:05:20.966Z,99495.63
2024-05-09T00:06:22.534Z,99492.52
2024-05-09T00:07:24.349Z,99493.89
2024-05-09T00:08:26.009Z,99491.44
2024-05-09T00:09:27.587Z,99486.81
2024-05-09T00:10:35.657Z,99485.38
2024-05-09T00:11:41.951Z,99489.55
2024-05-09T00:12:43.506Z,99494.65
2024-05-09T00:13:45.700Z,99490.09
2024-05-09T00:14:47.293Z,99490.77
2024-05-09T00:15:48.830Z,99492.23
2024-05-09T00:16:50.417Z,99486.80
2024-05-09T00:17:53.090Z,99492.20
2024-05-09T00:18:54.725Z,99487.66
2024-05-09T00:19:56.288Z,99491.04
2024-05-09T00:20:58.691Z,99488.53
2024-05-09T00:22:00.216Z,99488.84
2024-05-09T00:23:01.956Z,99488.00
2024-05-09T00:24:03.596Z,99487.36
2024-05-09T00:25:05.369Z,99487.55
2024-05-09T00:26:06.929Z,99488.59
2024-05-09T00:27:10.092Z,99490.33
2024-05-09T00:28:13.352Z,99494.11
2024-05-09T00:29:15.215Z,99483.69
2024-05-09T00:30:24.354Z,99487.98
2024-05-09T00:31:35.593Z,99489.55
2024-05-09T00:32:37.199Z,99488.90
2024-05-09T00:33:39.057Z,99493.11
2024-05-09T00:34:40.854Z,99494.66
2024-05-09T00:35:42.563Z,99495.42
2024-05-09T00:36:44.106Z,99495.82
2024-05-09T00:37:45.869Z,99496.38
2024-05-09T00:38:47.523Z,99494.86
2024-05-09T00:39:49.070Z,99481.95
2024-05-09T00:40:50.643Z,99495.88
2024-05-09T00:41:52.353Z,99493.58
2024-05-09T00:42:53.881Z,99496.48
2024-05-09T00:43:55.559Z,99499.25
2024-05-09T00:44:57.122Z,99496.95
2024-05-09T00:46:01.220Z,99496.20
2024-05-09T00:47:03.476Z,99497.42
2024-05-09T00:48:08.661Z,99497.87
2024-05-09T00:49:12.397Z,99493.60
2024-05-09T00:50:19.324Z,99496.80
2024-05-09T00:51:24.739Z,99496.84
2024-05-09T00:52:27.435Z,99496.11
2024-05-09T00:53:29.969Z,99494.29
2024-05-09T00:54:32.619Z,99499.77
2024-05-09T00:55:36.917Z,99496.27
2024-05-09T00:56:40.780Z,99496.64
2024-05-09T00:57:43.929Z,99496.95
2024-05-09T00:58:46.727Z,99493.99
2024-05-09T00:59:48.380Z,99493.80
2024-05-09T01:00:50.315Z,99494.64
2024-05-09T01:01:52.846Z,99491.80
2024-05-09T01:02:54.543Z,99493.07
2024-05-09T01:03:56.403Z,99492.73
2024-05-09T01:04:58.380Z,99491.89
2024-05-09T01:06:00.018Z,99490.48
2024-05-09T01:07:01.623Z,99493.30
2024-05-09T01:08:03.983Z,99490.23
2024-05-09T01:09:05.821Z,99489.16
2024-05-09T01:10:13.928Z,99490.08
2024-05-09T01:11:20.215Z,99488.98
2024-05-09T01:12:23.845Z,99489.12
2024-05-09T01:13:25.675Z,99487.64
2024-05-09T01:14:27.351Z,99487.63
2024-05-09T01:15:28.937Z,99487.04
2024-05-09T01:16:31.516Z,99488.41
2024-05-09T01:17:33.689Z,99485.13
2024-05-09T01:18:35.727Z,99488.31
2024-05-09T01:19:37.553Z,99485.42
2024-05-09T01:20:42.890Z,99490.48
2024-05-09T01:21:46.284Z,99485.49
2024-05-09T01:22:48.304Z,99490.73
2024-05-09T01:23:49.889Z,99488.54
2024-05-09T01:24:51.976Z,99489.90
2024-05-09T01:25:53.678Z,99490.60
2024-05-09T01:26:55.401Z,99491.04
2024-05-09T01:27:56.972Z,99488.20
2024-05-09T01:28:58.545Z,99487.17
2024-05-09T01:30:00.149Z,99487.77
2024-05-09T01:31:01.801Z,99487.59
2024-05-09T01:32:04.162Z,99488.39
2024-05-09T01:33:07.912Z,99489.27
2024-05-09T01:34:11.346Z,99485.73
2024-05-09T01:35:13.026Z,99490.36
2024-05-09T01:36:14.585Z,99491.20
2024-05-09T01:37:16.159Z,99494.58
2024-05-09T01:38:19.006Z,99492.61
2024-05-09T01:39:20.497Z,99492.86
2024-05-09T01:40:28.689Z,99480.15
2024-05-09T01:41:41.615Z,99494.16
2024-05-09T01:42:43.635Z,99494.11
2024-05-09T01:43:45.187Z,99491.23
2024-05-09T01:44:46.878Z,99483.52
2024-05-09T01:45:48.451Z,99495.70
2024-05-09T01:46:50.062Z,99495.30
2024-05-09T01:47:51.932Z,99496.36
2024-05-09T01:48:53.620Z,99494.55
2024-05-09T01:49:55.238Z,99499.25
2024-05-09T01:50:58.848Z,99493.81
2024-05-09T01:52:00.460Z,99499.39
2024-05-09T01:53:02.224Z,99494.77
2024-05-09T01:54:03.754Z,99496.27
2024-05-09T01:55:08.477Z,99494.95
2024-05-09T01:56:10.046Z,99498.96
2024-05-09T01:57:11.719Z,99496.98
2024-05-09T01:58:13.421Z,99499.08
2024-05-09T01:59:15.105Z,99499.83
2024-05-09T02:00:22.414Z,99504.13
2024-05-09T02:01:55.535Z,99499.59
2024-05-09T02:02:57.260Z,99504.25
2024-05-09T02:03:59.132Z,99500.85
2024-05-09T02:05:00.968Z,99496.75
2024-05-09T02:06:02.967Z,99496.00
2024-05-09T02:07:04.820Z,99493.19
2024-05-09T02:08:06.670Z,99496.02
2024-05-09T02:09:08.981Z,99495.48
2024-05-09T02:10:16.453Z,99493.23
2024-05-09T02:11:22.118Z,99493.55
2024-05-09T02:12:23.915Z,99498.06
2024-05-09T02:13:25.731Z,99494.63
2024-05-09T02:14:27.481Z,99497.73
2024-05-09T02:15:29.115Z,99498.93
2024-05-09T02:16:30.610Z,99498.48
2024-05-09T02:17:32.509Z,99499.65
2024-05-09T02:18:34.371Z,99494.60
2024-05-09T02:19:35.955Z,99498.63
2024-05-09T02:20:41.436Z,99495.80
2024-05-09T02:21:43.922Z,99485.05
2024-05-09T02:22:45.503Z,99499.91
2024-05-09T02:23:47.165Z,99497.36
2024-05-09T02:24:48.684Z,99500.61
2024-05-09T02:25:50.257Z,99498.48
2024-05-09T02:26:52.120Z,99494.09
2024-05-09T02:27:53.627Z,99492.84
2024-05-09T02:28:55.314Z,99495.04
2024-05-09T02:29:57.168Z,99493.89
2024-05-09T02:30:58.721Z,99489.64
2024-05-09T02:32:00.367Z,99474.77
2024-05-09T02:33:02.235Z,99490.42
2024-05-09T02:34:04.162Z,99489.48
2024-05-09T02:35:06.051Z,99489.08
2024-05-09T02:36:08.472Z,99487.71
2024-05-09T02:37:10.032Z,99489.86
2024-05-09T02:38:11.893Z,99493.23
2024-05-09T02:39:13.876Z,99490.17
2024-05-09T02:40:21.610Z,99493.52
2024-05-09T02:41:27.538Z,99492.65
2024-05-09T02:42:29.359Z,99493.55
2024-05-09T02:43:30.935Z,99494.08
2024-05-09T02:44:32.908Z,99494.36
2024-05-09T02:45:34.417Z,99496.13
2024-05-09T02:46:35.931Z,99494.98
2024-05-09T02:47:38.086Z,99494.41
2024-05-09T02:48:39.847Z,99495.28
2024-05-09T02:49:41.529Z,99484.98
2024-05-09T02:50:45.799Z,99489.16
2024-05-09T02:51:47.515Z,99492.40
2024-05-09T02:52:49.092Z,99495.22
2024-05-09T02:53:50.720Z,99493.75
2024-05-09T02:54:52.701Z,99490.81
2024-05-09T02:55:54.232Z,99488.54
2024-05-09T02:56:55.818Z,99493.48
2024-05-09T02:57:57.780Z,99487.89
2024-05-09T02:58:59.321Z,99491.09
2024-05-09T03:00:01.072Z,99495.17
2024-05-09T03:01:02.878Z,99489.69
2024-05-09T03:02:04.536Z,99490.98
2024-05-09T03:03:07.043Z,99491.69
2024-05-09T03:04:09.164Z,99498.35
2024-05-09T03:05:10.966Z,99495.03
2024-05-09T03:06:12.518Z,99498.95
2024-05-09T03:07:14.082Z,99497.13
2024-05-09T03:08:15.808Z,99498.29
2024-05-09T03:09:17.762Z,99482.70
2024-05-09T03:10:25.398Z,99493.41
2024-05-09T03:11:30.466Z,99495.48
2024-05-09T03:12:32.041Z,99492.05
2024-05-09T03:13:33.753Z,99490.80
2024-05-09T03:14:35.335Z,99491.33
2024-05-09T03:15:37.544Z,99486.70
2024-05-09T03:16:39.073Z,99476.95
2024-05-09T03:17:40.745Z,99487.01
2024-05-09T03:18:42.516Z,99492.11
2024-05-09T03:19:44.260Z,99494.23
2024-05-09T03:20:45.999Z,99495.56
2024-05-09T03:21:47.524Z,99491.26
2024-05-09T03:22:49.039Z,99490.52
2024-05-09T03:23:50.588Z,99490.62
2024-05-09T03:24:52.416Z,99495.48
2024-05-09T03:25:54.056Z,99494.41
2024-05-09T03:26:56.224Z,99497.68
2024-05-09T03:27:57.992Z,99493.90
2024-05-09T03:28:59.531Z,99499.52
2024-05-09T03:30:01.094Z,99480.14
2024-05-09T03:31:02.801Z,99498.65
2024-05-09T03:32:04.782Z,99498.67
2024-05-09T03:33:09.589Z,99499.05
2024-05-09T03:34:11.442Z,99502.77
2024-05-09T03:35:13.018Z,99490.19
2024-05-09T03:36:14.566Z,99504.48
2024-05-09T03:37:16.087Z,99502.70
2024-05-09T03:38:17.793Z,99502.88
2024-05-09T03:39:19.542Z,99502.17
2024-05-09T03:40:26.135Z,99503.98
2024-05-09T03:41:28.751Z,99505.50
2024-05-09T03:42:30.391Z,99503.95
2024-05-09T03:43:31.983Z,99502.70
2024-05-09T03:44:33.722Z,99502.13
2024-05-09T03:45:35.281Z,99503.90
2024-05-09T03:46:40.509Z,99504.58
2024-05-09T03:47:42.435Z,99504.01
2024-05-09T03:48:44.350Z,99500.73
2024-05-09T03:49:46.196Z,99501.49
2024-05-09T03:50:48.428Z,99499.27
2024-05-09T03:51:50.217Z,99500.83
2024-05-09T03:52:51.930Z,99501.65
2024-05-09T03:53:53.566Z,99503.06
2024-05-09T03:54:55.122Z,99500.62
2024-05-09T03:55:56.846Z,99503.54
2024-05-09T03:56:58.511Z,99498.47
2024-05-09T03:58:00.160Z,99500.72
2024-05-09T03:59:01.857Z,99501.39
2024-05-09T04:00:05.548Z,99499.08
2024-05-09T04:01:16.537Z,99498.27
2024-05-09T04:02:18.250Z,99495.60
2024-05-09T04:03:20.047Z,99495.10
2024-05-09T04:04:21.967Z,99496.45
2024-05-09T04:05:25.076Z,99499.56
2024-05-09T04:06:27.590Z,99496.63
2024-05-09T04:07:29.202Z,99501.05
2024-05-09T04:08:31.162Z,99504.02
2024-05-09T04:09:32.823Z,99505.84
2024-05-09T04:10:35.374Z,99507.22
2024-05-09T04:11:37.432Z,99505.20
2024-05-09T04:12:39.219Z,99502.42
2024-05-09T04:13:41.198Z,99503.06
2024-05-09T04:14:42.805Z,99503.50
2024-05-09T04:15:44.427Z,99504.70
2024-05-09T04:16:45.985Z,99506.23
2024-05-09T04:17:50.672Z,99508.27
2024-05-09T04:18:52.694Z,99508.59
2024-05-09T04:19:54.631Z,99501.29
2024-05-09T04:20:56.215Z,99506.50
2024-05-09T04:21:57.799Z,99506.00
2024-05-09T04:22:59.367Z,99507.38
2024-05-09T04:24:00.928Z,99506.63
2024-05-09T04:25:02.552Z,99503.84
2024-05-09T04:26:04.399Z,99487.70
2024-05-09T04:27:06.029Z,99505.59
2024-05-09T04:28:07.719Z,99505.02
2024-05-09T04:29:09.479Z,99506.14
2024-05-09T04:30:18.570Z,99506.27
2024-05-09T04:31:23.452Z,99508.20
2024-05-09T04:32:25.381Z,99510.20
2024-05-09T04:33:28.648Z,99507.83
2024-05-09T04:34:30.470Z,99504.86
2024-05-09T04:35:34.421Z,99502.40
2024-05-09T04:36:36.211Z,99503.02
2024-05-09T04:37:37.966Z,99505.35
2024-05-09T04:38:39.730Z,99503.46
2024-05-09T04:39:41.350Z,99501.64
2024-05-09T04:40:43.524Z,99509.80
2024-05-09T04:41:45.257Z,99507.65
2024-05-09T04:42:46.780Z,99509.85
2024-05-09T04:43:50.141Z,99505.89
2024-05-09T04:44:52.974Z,99507.73
2024-05-09T04:45:55.784Z,99504.61
2024-05-09T04:46:57.316Z,99508.92
2024-05-09T04:47:59.083Z,99503.91
2024-05-09T04:49:01.071Z,99507.29
2024-05-09T04:50:03.590Z,99507.84
2024-05-09T04:51:06.243Z,99508.21
2024-05-09T04:52:07.752Z,99513.38
2024-05-09T04:53:14.812Z,99507.88
2024-05-09T04:54:26.347Z,99508.30
2024-05-09T04:55:38.649Z,99508.11
2024-05-09T04:56:40.289Z,99507.69
2024-05-09T04:57:41.855Z,99503.30
2024-05-09T04:58:43.364Z,99506.85
2024-05-09T04:59:44.899Z,99504.19
2024-05-09T05:00:46.517Z,99505.61
2024-05-09T05:01:48.213Z,99506.05
2024-05-09T05:02:49.938Z,99508.41
2024-05-09T05:03:51.922Z,99507.08
2024-05-09T05:04:54.073Z,99507.32
2024-05-09T05:05:55.916Z,99507.49
2024-05-09T05:06:59.736Z,99507.51
2024-05-09T05:08:03.830Z,99511.63
2024-05-09T05:09:05.649Z,99510.02
2024-05-09T05:10:09.356Z,99508.30
2024-05-09T05:11:13.776Z,99509.42
2024-05-09T05:12:35.830Z,99497.96
2024-05-09T05:13:40.110Z,99509.77
2024-05-09T05:14:43.090Z,99514.36
2024-05-09T05:15:47.577Z,99517.09
2024-05-09T05:16:49.262Z,99517.30
2024-05-09T05:17:50.965Z,99517.58
2024-05-09T05:18:52.939Z,99518.02
2024-05-09T05:19:56.240Z,99512.06
2024-05-09T05:20:58.526Z,99516.19
2024-05-09T05:22:00.161Z,99516.97
2024-05-09T05:23:01.817Z,99513.29
2024-05-09T05:24:03.689Z,99516.34
2024-05-09T05:25:05.621Z,99516.15
2024-05-09T05:26:07.159Z,99516.44
2024-05-09T05:27:08.685Z,99520.02
2024-05-09T05:28:10.373Z,99519.99
2024-05-09T05:29:11.999Z,99519.42
2024-05-09T05:30:21.482Z,99517.55
2024-05-09T05:31:30.386Z,99517.11
2024-05-09T05:32:32.140Z,99512.94
2024-05-09T05:33:33.780Z,99515.55
2024-05-09T05:34:35.371Z,99512.70
2024-05-09T05:35:37.612Z,99518.83
2024-05-09T05:36:39.141Z,99516.82
2024-05-09T05:37:41.157Z,99511.04
2024-05-09T05:38:43.012Z,99510.80
2024-05-09T05:39:44.599Z,99509.86
2024-05-09T05:40:48.691Z,99512.59
2024-05-09T05:41:50.258Z,99512.79
2024-05-09T05:42:51.819Z,99512.86
2024-05-09T05:43:53.748Z,99509.55
2024-05-09T05:44:55.268Z,99513.16
2024-05-09T05:45:56.825Z,99509.71
2024-05-09T05:46:58.333Z,99509.20
2024-05-09T05:48:03.655Z,99513.38
2024-05-09T05:49:05.410Z,99513.86
2024-05-09T05:50:17.790Z,99514.67
2024-05-09T05:51:26.215Z,99520.42
2024-05-09T05:52:27.824Z,99516.79
2024-05-09T05:53:29.441Z,99516.39
2024-05-09T05:54:31.083Z,99512.30
2024-05-09T05:55:32.642Z,99512.14
2024-05-09T05:56:34.215Z,99513.05
2024-05-09T05:57:35.939Z,99510.36
2024-05-09T05:58:37.897Z,99510.64
2024-05-09T05:59:39.761Z,99511.58
2024-05-09T06:00:42.318Z,99514.55
2024-05-09T06:01:44.560Z,99513.58
2024-05-09T06:02:48.427Z,99513.63
2024-05-09T06:03:50.423Z,99513.55
2024-05-09T06:04:52.454Z,99516.27
2024-05-09T06:05:54.204Z,99514.14
2024-05-09T06:06:56.006Z,99514.59
2024-05-09T06:07:57.664Z,99511.09
2024-05-09T06:08:59.378Z,99513.23
2024-05-09T06:10:01.013Z,99507.77
2024-05-09T06:11:02.772Z,99513.45
2024-05-09T06:12:05.007Z,99515.69
2024-05-09T06:13:13.428Z,99513.55
2024-05-09T06:14:15.740Z,99514.30
2024-05-09T06:15:17.735Z,99516.02
2024-05-09T06:16:19.310Z,99516.06
2024-05-09T06:17:21.100Z,99513.40
2024-05-09T06:18:23.385Z,99511.73
2024-05-09T06:19:25.258Z,99508.65
2024-05-09T06:20:34.460Z,99510.91
2024-05-09T06:21:38.955Z,99513.29
2024-05-09T06:22:40.582Z,99511.65
2024-05-09T06:23:46.156Z,99513.45
2024-05-09T06:24:47.751Z,99514.27
2024-05-09T06:25:49.420Z,99512.25
2024-05-09T06:26:50.980Z,99517.87
2024-05-09T06:27:52.994Z,99502.42
2024-05-09T06:28:54.563Z,99515.94
2024-05-09T06:29:56.141Z,99513.94
2024-05-09T06:30:57.622Z,99513.41
2024-05-09T06:32:00.362Z,99514.99
2024-05-09T06:33:04.335Z,99517.20
2024-05-09T06:34:06.203Z,99512.89
2024-05-09T06:35:07.895Z,99514.52
2024-05-09T06:36:09.410Z,99512.94
2024-05-09T06:37:10.982Z,99518.38
2024-05-09T06:38:16.191Z,99506.23
2024-05-09T06:39:17.885Z,99516.86
2024-05-09T06:40:36.218Z,99519.56
2024-05-09T06:41:42.796Z,99514.35
2024-05-09T06:42:44.470Z,99515.98
2024-05-09T06:43:46.118Z,99518.42
2024-05-09T06:44:47.638Z,99512.14
2024-05-09T06:45:52.031Z,99512.06
2024-05-09T06:46:55.776Z,99512.45
2024-05-09T06:47:59.879Z,99510.31
2024-05-09T06:49:07.436Z,99496.55
2024-05-09T06:50:16.331Z,99510.54
2024-05-09T06:51:24.520Z,99510.20
2024-05-09T06:52:26.334Z,99510.34
2024-05-09T06:53:27.955Z,99505.46
2024-05-09T06:54:30.421Z,99508.88
2024-05-09T06:55:32.078Z,99509.44
2024-05-09T06:56:35.052Z,99512.23
2024-05-09T06:57:38.334Z,99508.86
2024-05-09T06:58:40.848Z,99509.33
2024-05-09T06:59:42.589Z,99515.25
2024-05-09T07:00:44.309Z,99509.90
2024-05-09T07:01:45.978Z,99514.27
2024-05-09T07:02:47.789Z,99515.75
2024-05-09T07:03:49.606Z,99517.05
2024-05-09T07:04:51.355Z,99516.90
2024-05-09T07:05:53.201Z,99509.80
2024-05-09T07:06:54.776Z,99520.20
2024-05-09T07:07:56.275Z,99512.97
2024-05-09T07:08:57.881Z,99518.35
2024-05-09T07:09:59.793Z,99516.15
2024-05-09T07:11:01.453Z,99515.34
2024-05-09T07:12:03.559Z,99517.23
2024-05-09T07:13:12.568Z,99516.70
2024-05-09T07:14:14.272Z,99504.30
2024-05-09T07:15:15.930Z,99513.95
2024-05-09T07:16:17.452Z,99505.02
2024-05-09T07:17:19.384Z,99510.69
2024-05-09T07:18:21.186Z,99509.15
2024-05-09T07:19:22.999Z,99510.39
2024-05-09T07:20:32.439Z,99511.80
2024-05-09T07:21:38.831Z,99500.70
2024-05-09T07:22:40.309Z,99505.25
2024-05-09T07:23:43.609Z,99504.10
2024-05-09T07:24:46.011Z,99506.05
2024-05-09T07:25:47.828Z,99507.13
2024-05-09T07:26:49.512Z,99508.98
2024-05-09T07:27:51.053Z,99504.95
2024-05-09T07:28:52.807Z,99492.75
2024-05-09T07:29:54.373Z,99506.58
2024-05-09T07:30:55.943Z,99510.11
2024-05-09T07:31:57.783Z,99506.01
2024-05-09T07:32:59.449Z,99505.70
2024-05-09T07:34:01.268Z,99508.39
2024-05-09T07:35:03.069Z,99508.63
2024-05-09T07:36:04.936Z,99504.34
2024-05-09T07:37:11.724Z,99507.91
2024-05-09T07:38:13.534Z,99509.67
2024-05-09T07:39:15.124Z,99507.98
2024-05-09T07:40:24.968Z,99510.77
2024-05-09T07:41:36.744Z,99509.70
2024-05-09T07:42:38.491Z,99509.17
2024-05-09T07:43:39.970Z,99507.73
2024-05-09T07:44:41.671Z,99509.73
2024-05-09T07:45:51.886Z,99510.20
2024-05-09T07:53:29.650Z,99507.37
2024-05-09T07:53:48.322Z,99505.58
2024-05-09T07:54:53.224Z,99508.63
2024-05-09T07:55:55.880Z,99506.70
2024-05-09T07:56:57.918Z,99505.55
2024-05-09T07:57:59.549Z,99505.02
2024-05-09T07:59:01.047Z,99508.77
2024-05-09T08:00:03.326Z,99507.59
2024-05-09T08:01:05.231Z,99506.25
2024-05-09T08:02:08.871Z,99504.58
2024-05-09T08:03:10.641Z,99510.21
2024-05-09T08:04:12.322Z,99509.94
2024-05-09T08:05:14.144Z,99507.65
2024-05-09T08:06:15.810Z,99507.23
2024-05-09T08:07:18.370Z,99504.25
2024-05-09T08:08:19.921Z,99508.35
2024-05-09T08:09:21.809Z,99508.27
2024-05-09T08:10:28.459Z,99506.55
2024-05-09T08:11:31.968Z,99506.43
2024-05-09T08:12:33.705Z,99493.28
2024-05-09T08:13:35.206Z,99506.23
2024-05-09T08:14:36.756Z,99505.14
2024-05-09T08:15:38.818Z,99504.20
2024-05-09T08:16:40.393Z,99502.77
2024-05-09T08:17:41.967Z,99500.07
2024-05-09T08:18:43.610Z,99507.31
2024-05-09T08:19:45.304Z,99509.57
2024-05-09T08:20:49.000Z,99510.57
2024-05-09T08:21:50.600Z,99508.56
2024-05-09T08:22:52.208Z,99503.23
2024-05-09T08:23:54.099Z,99493.54
2024-05-09T08:24:55.771Z,99503.73
2024-05-09T08:25:57.765Z,99502.60
2024-05-09T08:26:59.253Z,99503.05
2024-05-09T08:28:03.558Z,99502.23
2024-05-09T08:29:05.083Z,99499.70
2024-05-09T08:30:10.190Z,99499.05
2024-05-09T08:31:14.276Z,99499.36
2024-05-09T08:32:16.058Z,99499.21
2024-05-09T08:33:18.653Z,99500.77
2024-05-09T08:34:20.527Z,99498.52
2024-05-09T08:35:22.173Z,99495.25
2024-05-09T08:36:23.751Z,99497.23
2024-05-09T08:37:29.443Z,99498.05
2024-05-09T08:38:36.480Z,99495.03
2024-05-09T08:39:38.193Z,99495.20
2024-05-09T08:40:41.135Z,99497.59
2024-05-09T08:41:49.079Z,99502.73
2024-05-09T08:42:55.469Z,99502.20
2024-05-09T08:43:57.193Z,99500.50
2024-05-09T08:44:58.762Z,99497.52
2024-05-09T08:46:02.459Z,99498.56
2024-05-09T08:47:08.385Z,99499.30
2024-05-09T08:48:12.293Z,99498.58
2024-05-09T08:49:15.564Z,99500.81
2024-05-09T08:50:28.392Z,99496.23
2024-05-09T08:51:39.622Z,99491.56
2024-05-09T08:52:41.528Z,99489.00
2024-05-09T08:53:43.171Z,99488.13
2024-05-09T08:54:45.083Z,99487.84
2024-05-09T08:55:50.577Z,99493.56
2024-05-09T08:56:52.541Z,99480.93
2024-05-09T08:57:55.253Z,99488.50
2024-05-09T08:59:01.050Z,99485.86
2024-05-09T09:00:10.004Z,99489.50
2024-05-09T09:01:17.368Z,99490.79
2024-05-09T09:02:21.756Z,99491.58
2024-05-09T09:03:27.075Z,99493.79
2024-05-09T09:04:30.503Z,99496.16
2024-05-09T09:05:37.709Z,99490.52
2024-05-09T09:06:39.935Z,99493.50
2024-05-09T09:07:47.552Z,99491.75
2024-05-09T09:08:49.768Z,99492.09
2024-05-09T09:09:51.919Z,99492.05
2024-05-09T09:10:57.455Z,99488.27
2024-05-09T09:11:59.625Z,99491.45
2024-05-09T09:13:03.307Z,99489.77
2024-05-09T09:14:04.818Z,99493.95
2024-05-09T09:15:06.332Z,99492.02
2024-05-09T09:16:08.052Z,99492.55
2024-05-09T09:17:16.316Z,99488.66
2024-05-09T09:18:18.259Z,99491.09
2024-05-09T09:19:22.390Z,99492.85
2024-05-09T09:20:35.350Z,99498.33
2024-05-09T09:21:38.326Z,99499.87
2024-05-09T09:22:40.095Z,99500.62
2024-05-09T09:23:42.596Z,99495.96
2024-05-09T09:24:44.649Z,99501.86
2024-05-09T09:25:46.620Z,99501.19
2024-05-09T09:26:48.250Z,99499.19
2024-05-09T09:27:50.095Z,99497.44
2024-05-09T09:28:51.734Z,99496.40
2024-05-09T09:29:55.913Z,99492.98
2024-05-09T09:31:05.019Z,99493.77
2024-05-09T09:32:07.840Z,99494.98
2024-05-09T09:33:10.554Z,99492.63
2024-05-09T09:34:12.522Z,99493.20
2024-05-09T09:35:14.245Z,99483.05
2024-05-09T09:36:17.575Z,99496.59
2024-05-09T09:37:27.999Z,99494.53
2024-05-09T09:38:31.640Z,99492.45
2024-05-09T09:39:35.126Z,99494.25
2024-05-09T09:40:44.925Z,99494.63
2024-05-09T09:41:53.821Z,99494.49
2024-05-09T09:42:57.026Z,99496.84
2024-05-09T09:44:01.564Z,99495.60
2024-05-09T09:45:05.395Z,99498.88
2024-05-09T09:46:10.732Z,99498.20
2024-05-09T09:47:16.600Z,99475.98
2024-05-09T09:48:20.580Z,99489.71
2024-05-09T09:49:26.727Z,99489.59
2024-05-09T09:50:34.219Z,99481.91
2024-05-09T09:51:42.910Z,99481.27
2024-05-09T09:52:45.733Z,99479.49
2024-05-09T09:53:51.614Z,99477.45
2024-05-09T09:54:54.991Z,99482.23
2024-05-09T09:55:58.233Z,99483.05
2024-05-09T09:57:02.408Z,99484.94
2024-05-09T09:58:04.190Z,99481.61
2024-05-09T09:59:06.183Z,99481.21
2024-05-09T10:00:11.884Z,99483.45
2024-05-09T10:01:16.451Z,99484.15
2024-05-09T10:02:18.374Z,99477.25
2024-05-09T10:03:20.246Z,99467.84
2024-05-09T10:04:23.210Z,99475.80
2024-05-09T10:05:25.923Z,99478.63
2024-05-09T10:06:30.603Z,99484.69
2024-05-09T10:07:35.054Z,99469.66
2024-05-09T10:08:37.730Z,99482.30
2024-05-09T10:09:39.606Z,99479.63
2024-05-09T10:10:46.594Z,99476.20
2024-05-09T10:11:52.417Z,99481.41
2024-05-09T10:12:59.072Z,99482.78
2024-05-09T10:14:01.160Z,99481.70
2024-05-09T10:15:08.343Z,99480.53
2024-05-09T10:16:10.808Z,99481.75
2024-05-09T10:17:12.458Z,99476.63
2024-05-09T10:18:14.638Z,99477.14
2024-05-09T10:19:24.032Z,99474.83
2024-05-09T10:20:30.816Z,99481.00
2024-05-09T10:21:46.027Z,99478.51
2024-05-09T10:22:49.622Z,99478.61
2024-05-09T10:23:57.075Z,99474.66
2024-05-09T10:25:06.571Z,99470.56
2024-05-09T10:26:08.178Z,99469.82
2024-05-09T10:27:09.892Z,99470.92
2024-05-09T10:28:11.653Z,99469.16
2024-05-09T10:29:16.846Z,99469.04
2024-05-09T10:30:29.771Z,99467.61
2024-05-09T10:31:44.848Z,99469.10
2024-05-09T10:32:46.632Z,99468.23
2024-05-09T10:33:51.934Z,99459.85
2024-05-09T10:35:21.863Z,99465.83
2024-05-09T10:36:28.049Z,99471.14
2024-05-09T10:37:30.723Z,99473.83
2024-05-09T10:38:33.386Z,99472.20
2024-05-09T10:39:36.554Z,99471.21
2024-05-09T10:40:39.231Z,99469.21
2024-05-09T10:41:40.825Z,99472.69
2024-05-09T10:42:42.766Z,99472.80
2024-05-09T10:43:44.933Z,99470.31
2024-05-09T10:44:46.569Z,99473.01
2024-05-09T10:45:48.566Z,99477.06
2024-05-09T10:46:50.647Z,99475.89
2024-05-09T10:47:52.465Z,99478.83
2024-05-09T10:48:57.130Z,99480.47
2024-05-09T10:49:58.935Z,99478.61
2024-05-09T10:51:00.740Z,99477.71
2024-05-09T10:52:03.531Z,99478.16
2024-05-09T10:53:05.081Z,99464.73
2024-05-09T10:54:06.997Z,99475.62
2024-05-09T10:55:08.667Z,99476.70
2024-05-09T10:56:13.612Z,99477.14
2024-05-09T10:57:15.700Z,99475.77
2024-05-09T10:58:17.415Z,99476.52
2024-05-09T10:59:19.110Z,99476.64
2024-05-09T11:00:27.525Z,99478.51
2024-05-09T11:01:37.496Z,99473.32
2024-05-09T11:02:39.632Z,99471.48
2024-05-09T11:03:46.004Z,99468.95
2024-05-09T11:04:48.988Z,99467.64
2024-05-09T11:05:55.011Z,99459.63
2024-05-09T11:06:59.580Z,99458.39
2024-05-09T11:08:02.261Z,99454.89
2024-05-09T11:09:05.327Z,99457.39
2024-05-09T11:10:12.256Z,99453.39
2024-05-09T11:11:14.845Z,99451.65
2024-05-09T11:12:16.707Z,99444.66
2024-05-09T11:13:31.400Z,99451.05
2024-05-09T11:14:33.646Z,99446.38
2024-05-09T11:15:42.290Z,99443.45
2024-05-09T11:16:43.882Z,99448.36
2024-05-09T11:17:45.504Z,99450.29
2024-05-09T11:18:55.546Z,99452.98
2024-05-09T11:19:57.329Z,99449.98
2024-05-09T11:20:58.987Z,99451.86
2024-05-09T11:22:03.247Z,99452.60
2024-05-09T11:23:06.294Z,99453.08
2024-05-09T11:24:11.022Z,99452.58
2024-05-09T11:25:13.296Z,99449.61
2024-05-09T11:26:18.484Z,99449.60
2024-05-09T11:27:21.126Z,99448.61
2024-05-09T11:28:23.283Z,99443.34
2024-05-09T11:29:38.949Z,99444.41
2024-05-09T11:30:40.655Z,99447.17
2024-05-09T11:31:46.762Z,99445.94
2024-05-09T11:32:49.098Z,99442.58
2024-05-09T11:33:53.967Z,99436.58
2024-05-09T11:34:55.596Z,99445.05
2024-05-09T11:35:57.595Z,99444.50
2024-05-09T11:36:59.391Z,99445.20
2024-05-09T11:38:00.947Z,99441.69
2024-05-09T11:39:02.562Z,99444.02
2024-05-09T11:40:07.062Z,99443.54
2024-05-09T11:41:19.965Z,99441.87
2024-05-09T11:42:21.722Z,99442.05
2024-05-09T11:43:23.368Z,99448.30
2024-05-09T11:44:26.025Z,99450.26
2024-05-09T11:45:27.809Z,99450.17
2024-05-09T11:46:29.510Z,99445.53
2024-05-09T11:47:31.426Z,99444.85
2024-05-09T11:48:33.223Z,99446.52
2024-05-09T11:49:35.036Z,99447.15
2024-05-09T11:50:36.864Z,99442.44
2024-05-09T11:51:38.520Z,99439.98
2024-05-09T11:52:42.900Z,99429.38
2024-05-09T11:53:44.572Z,99438.68
2024-05-09T11:54:46.222Z,99437.00
2024-05-09T11:55:47.874Z,99431.23
2024-05-09T11:56:50.805Z,99434.84
2024-05-09T11:57:52.661Z,99437.11
2024-05-09T11:58:54.773Z,99432.34
2024-05-09T11:59:56.635Z,99435.23
2024-05-09T12:00:58.336Z,99433.98
2024-05-09T12:02:00.184Z,99433.30
2024-05-09T12:03:03.645Z,99430.83
2024-05-09T12:04:05.613Z,99433.64
2024-05-09T12:05:07.458Z,99429.33
2024-05-09T12:06:09.399Z,99432.00
2024-05-09T12:07:13.021Z,99435.11
2024-05-09T12:08:14.821Z,99427.94
2024-05-09T12:09:17.129Z,99432.77
2024-05-09T12:10:22.428Z,99430.88
2024-05-09T12:11:27.934Z,99433.23
2024-05-09T12:12:29.663Z,99430.46
2024-05-09T12:13:31.198Z,99433.27
2024-05-09T12:14:32.827Z,99431.93
2024-05-09T12:15:35.510Z,99431.89
2024-05-09T12:16:37.201Z,99430.04
2024-05-09T12:17:38.801Z,99427.30
2024-05-09T12:18:40.439Z,99430.27
2024-05-09T12:19:42.096Z,99430.00
2024-05-09T12:20:43.860Z,99428.44
2024-05-09T12:21:45.492Z,99431.30
2024-05-09T12:22:47.483Z,99429.02
2024-05-09T12:23:49.023Z,99423.05
2024-05-09T12:24:50.630Z,99425.65
2024-05-09T12:25:52.894Z,99426.83
2024-05-09T12:26:54.823Z,99431.70
2024-05-09T12:27:56.434Z,99429.74